Details From EGAE - Londonderry Eglinton
To EGNT - Newcastle
Flight Number -
Tags generated
Created
Modified
Stats Distance 189 nm / 349 km
Max Altitude 17,300 ft / 5,273 m
Waypoints 3
Social Downloads 0
Likes 0
Share VATSIM

Download

Looking for another format? Having issues loading an existing format? Contact us
Advertisement - Login to hide

Notes

Basic altitude profile: - Ascent Rate: 2500ft/min - Ascent Speed: 250kts - Cruise Altitude: 35000ft - Cruise Speed: 420kts - Descent Rate: 1500ft/min - Descent Speed: 250kts Options: - Use NATs: yes - Use PACOTS: yes - Use low airways: yes - Use high airways: yes

Route

EGAE NGY EGNT

ID Type Via Altitude Latitude Longitude Leg Dist Tot Dist Heading (true) Name
O EGAE APT - 0 ft / 0 m 55.04281˚ -7.16119˚ - 0 nm - Londonderry Eglinton
NGY NDB - 17,300 ft / 5,273 m 55.17750˚ -4.16861˚ 103 nm 103 nm 84° / 87° NEW GALLOWAY NDB
O EGNT APT - 0 ft / 0 m 55.03792˚ -1.68983˚ 85 nm 188 nm 95° / 97° Newcastle

Altitude Profile

Advertisement - Login to hide

Weather


0- 5 10 15 20 25 30 35+ Temperature / ° C

Clouds and Precipitation
Forecast for 2017-12-18 00:00 UTC. Updated 25 minutes ago

Ground ~20,000 ft ~40,000 ft Winds

EGAE

Details ICAO EGAE (LDY)
Name Londonderry Eglinton
Region United Kingdom
Timezone Europe/London (UTC+0.0)
Stats Elevation 22 ft / 7 m (AMSL)
Location 55.042812° -7.161188°
Runways 1
Magnetic Variation 3.708° W

METAR

EGAE 172120Z 23005KT 9999 FEW018 BKN042 08/06 Q1022

Decode

TAF

Not found

Departure Runways

ID Width Length Bearing (true) Bearing (mag) Surface Threshold Offset Overrun Length
08 148 ft / 45 m 6,058 ft / 1,846 m 73.07° 76.78° Asphalt 407 ft / 124 m 0 ft / 0 m
26 148 ft / 45 m 6,058 ft / 1,846 m 253.09° 256.80° Asphalt 0 ft / 0 m 0 ft / 0 m

EGNT

Details ICAO EGNT (NCL)
Name Newcastle
Region United Kingdom
Timezone Europe/London (UTC+0.0)
Stats Elevation 266 ft / 81 m (AMSL)
Location 55.037922° -1.689833°
Runways 1
Magnetic Variation 1.476° W

METAR

EGNT 172120Z 28010KT 9999 FEW028 04/00 Q1018

Decode

TAF

TAF EGNT 171700Z 1718/1818 27008KT CAVOK TEMPO 1718/1720 28015G25KT

Decode

Destination Runways

ID Width Length Bearing (true) Bearing (mag) Surface Threshold Offset Overrun Length
07 151 ft / 46 m 7,621 ft / 2,323 m 65.13° 66.61° Asphalt 394 ft / 120 m 108 ft / 33 m
25 151 ft / 46 m 7,621 ft / 2,323 m 245.16° 246.64° Asphalt 446 ft / 136 m 56 ft / 17 m

Approach Navaids

Runway Type Ident Frequency Range Bearing (true) Bearing (mag) Slope Elevation
07 Localiser INC 111.50 MHz 18 nm / 33 km 65.18° 66.66° - 297 ft / 91 m (AMSL)
07 Glidescope INC 111.50 MHz 10 nm / 19 km 65.15° 66.62° 3.00° 297 ft / 91 m (AMSL)
07 DME INC 111.50 MHz 18 nm / 33 km - - - 256 ft / 78 m (AMSL)
25 Localiser INWC 111.50 MHz 18 nm / 33 km 245.12° 246.59° - 279 ft / 85 m (AMSL)
25 Glidescope INWC 111.50 MHz 10 nm / 19 km 245.15° 246.62° 3.00° 297 ft / 91 m (AMSL)
25 DME INWC 111.50 MHz 18 nm / 33 km - - - 256 ft / 78 m (AMSL)